Time;durP1;ratioP1;P1;durP2;ratioP2;P2;SDS_P1;SDS_P2;PMS_P1;PMS_P2;Temp;Humidity;BMP_temperature;BMP_pressure;BME280_temperature;BME280_humidity;BME280_pressure;Samples;Min_cycle;Max_cycle;Signal;HPM_P1;HPM_P2
2022/05/01 00:01:36;;;;;;;6.40;2.05;;;20.30;50.90;;;;;;4497996;31;20261;-65
2022/05/01 00:04:02;;;;;;;8.13;2.40;;;20.30;50.90;;;;;;4497051;31;20139;-65
2022/05/01 00:06:31;;;;;;;6.40;1.98;;;20.30;50.90;;;;;;4497708;31;20150;-65
2022/05/01 00:08:58;;;;;;;5.88;2.17;;;20.30;50.90;;;;;;4497390;31;20270;-65
2022/05/01 00:11:24;;;;;;;7.03;2.17;;;20.30;51.00;;;;;;4497224;31;20185;-64
2022/05/01 00:13:51;;;;;;;8.63;2.25;;;20.20;50.90;;;;;;4497957;31;20151;-64
2022/05/01 00:16:16;;;;;;;4.90;2.03;;;20.30;50.90;;;;;;4497723;31;20538;-65
2022/05/01 00:18:42;;;;;;;5.57;1.85;;;20.20;50.90;;;;;;4496635;31;20191;-65
2022/05/01 00:21:08;;;;;;;4.47;2.20;;;20.20;50.90;;;;;;4496827;31;20136;-64
2022/05/01 00:23:34;;;;;;;5.32;1.90;;;20.20;50.90;;;;;;4483192;31;20120;-65
2022/05/01 00:26:03;;;;;;;5.53;2.15;;;20.20;51.00;;;;;;4497062;31;20120;-65
2022/05/01 00:28:39;;;;;;;4.25;1.42;;;20.20;50.90;;;;;;4497177;31;20140;-64
2022/05/01 00:31:07;;;;;;;6.60;1.92;;;20.20;50.90;;;;;;4497874;31;20147;-65
2022/05/01 00:36:25;;;;;;;5.18;1.80;;;20.10;50.90;;;;;;4496701;31;20129;-65
2022/05/01 00:38:52;;;;;;;5.45;1.77;;;20.10;50.90;;;;;;4501078;31;20132;-64
2022/05/01 00:41:21;;;;;;;4.30;1.83;;;20.10;50.90;;;;;;4510656;31;20151;-64
2022/05/01 00:44:14;;;;;;;6.38;1.90;;;20.10;50.90;;;;;;4506668;31;20698;-65
2022/05/01 00:46:50;;;;;;;5.88;1.80;;;20.10;50.80;;;;;;4495480;31;20167;-64
2022/05/01 00:49:19;;;;;;;5.43;1.88;;;20.10;50.90;;;;;;4496542;31;20124;-65
2022/05/01 00:51:46;;;;;;;6.32;1.75;;;20.00;50.90;;;;;;4496341;31;20121;-64
2022/05/01 00:54:14;;;;;;;4.97;2.05;;;20.00;50.90;;;;;;4495737;31;20139;-64
2022/05/01 00:56:42;;;;;;;5.63;1.80;;;20.00;50.80;;;;;;4496852;31;20572;-64
2022/05/01 00:59:10;;;;;;;4.72;1.85;;;20.00;50.90;;;;;;4495438;31;20143;-64
2022/05/01 01:01:36;;;;;;;3.47;1.50;;;20.00;50.80;;;;;;4495668;31;20136;-64
2022/05/01 01:04:02;;;;;;;2.08;1.33;;;20.00;50.90;;;;;;4495879;31;20128;-64
2022/05/01 01:06:30;;;;;;;5.30;1.85;;;20.00;50.90;;;;;;4496252;31;20124;-64
2022/05/01 01:08:56;;;;;;;3.67;1.50;;;20.00;50.80;;;;;;4497280;31;20234;-64
2022/05/01 01:11:22;;;;;;;5.70;1.65;;;19.90;50.80;;;;;;4496039;31;20143;-64
2022/05/01 01:13:48;;;;;;;2.78;1.60;;;19.90;50.80;;;;;;4496842;31;20133;-65
2022/05/01 01:16:15;;;;;;;5.18;1.58;;;19.90;50.80;;;;;;4496265;31;20197;-65
2022/05/01 01:18:41;;;;;;;2.92;1.42;;;19.90;50.80;;;;;;4496756;31;20230;-64
2022/05/01 01:21:10;;;;;;;4.05;1.40;;;19.90;50.80;;;;;;4495505;31;20267;-64
2022/05/01 01:23:40;;;;;;;6.45;2.03;;;19.90;50.80;;;;;;4495248;31;20150;-64
2022/05/01 01:26:07;;;;;;;3.20;1.77;;;19.90;50.80;;;;;;4497109;31;20164;-64
2022/05/01 01:28:39;;;;;;;2.78;1.55;;;19.90;50.80;;;;;;4496110;31;20648;-65
2022/05/01 01:33:53;;;;;;;3.63;1.73;;;19.80;50.70;;;;;;4496545;31;20136;-65
2022/05/01 01:36:22;;;;;;;5.00;1.85;;;19.90;50.70;;;;;;4496190;31;20125;-65
2022/05/01 01:38:49;;;;;;;3.33;1.48;;;19.80;50.70;;;;;;4496948;31;20210;-64
2022/05/01 01:41:20;;;;;;;2.72;1.50;;;19.80;50.70;;;;;;4495607;31;20152;-64
2022/05/01 01:43:49;;;;;;;2.75;1.60;;;19.80;50.70;;;;;;4496701;31;20172;-65
2022/05/01 01:46:16;;;;;;;3.20;1.50;;;19.80;50.70;;;;;;4495213;31;20180;-64
2022/05/01 01:48:45;;;;;;;3.72;1.77;;;19.80;50.70;;;;;;4496437;31;20128;-65
2022/05/01 01:51:11;;;;;;;2.70;1.30;;;19.80;50.70;;;;;;4495335;31;20140;-64
2022/05/01 01:53:37;;;;;;;2.70;1.50;;;19.80;50.60;;;;;;4494997;31;20489;-65
2022/05/01 01:56:04;;;;;;;4.60;1.67;;;19.80;50.70;;;;;;4496839;31;20124;-65
2022/05/01 01:58:30;;;;;;;3.20;1.50;;;19.70;50.60;;;;;;4495866;31;20140;-64
2022/05/01 02:00:57;;;;;;;3.72;1.50;;;19.70;50.60;;;;;;4497037;31;20727;-65
2022/05/01 02:03:23;;;;;;;2.58;1.35;;;19.70;51.50;;;;;;4495533;31;20121;-64
2022/05/01 02:05:50;;;;;;;3.28;1.40;;;19.70;50.60;;;;;;4498103;31;20128;-64
2022/05/01 02:08:16;;;;;;;3.70;1.70;;;19.70;50.60;;;;;;4499961;31;20191;-64
2022/05/01 02:10:44;;;;;;;2.33;1.20;;;19.70;50.60;;;;;;4499191;31;20317;-64
2022/05/01 02:13:10;;;;;;;2.88;1.58;;;19.70;50.60;;;;;;4500260;31;20116;-64
2022/05/01 02:15:37;;;;;;;2.97;1.40;;;19.70;50.60;;;;;;4499112;31;20140;-64
2022/05/01 02:18:04;;;;;;;3.47;1.58;;;19.70;50.60;;;;;;4511459;31;20144;-64
2022/05/01 02:23:17;;;;;;;2.67;1.58;;;19.60;50.60;;;;;;4498645;31;20121;-64
2022/05/01 02:25:43;;;;;;;1.90;1.25;;;19.60;50.60;;;;;;4498964;31;20140;-65
2022/05/01 02:28:10;;;;;;;4.05;1.55;;;19.60;50.60;;;;;;4497956;31;20278;-64
2022/05/01 02:30:37;;;;;;;1.92;1.40;;;19.60;50.60;;;;;;4505807;31;20140;-65
2022/05/01 02:33:06;;;;;;;2.28;1.30;;;19.60;50.60;;;;;;4514899;31;20224;-64
2022/05/01 02:35:32;;;;;;;3.00;1.40;;;19.60;50.60;;;;;;4515419;31;20151;-64
2022/05/01 02:37:59;;;;;;;2.58;1.48;;;19.60;50.70;;;;;;4503604;31;20121;-65
2022/05/01 02:40:26;;;;;;;2.17;1.20;;;19.60;50.70;;;;;;4497594;31;20136;-65
2022/05/01 02:42:52;;;;;;;2.65;1.10;;;19.60;50.70;;;;;;4498323;31;20633;-65
2022/05/01 02:45:18;;;;;;;2.60;1.50;;;19.50;50.60;;;;;;4497404;31;20266;-65
2022/05/01 02:47:44;;;;;;;2.10;1.30;;;19.60;50.70;;;;;;4499258;31;20617;-65
2022/05/01 02:50:10;;;;;;;2.20;1.13;;;19.50;50.60;;;;;;4498857;31;20577;-64
2022/05/01 02:52:36;;;;;;;2.92;1.45;;;19.50;50.60;;;;;;4485129;31;20282;-64
2022/05/01 02:55:02;;;;;;;3.10;1.35;;;19.50;50.60;;;;;;4484790;31;20610;-64
2022/05/01 02:57:28;;;;;;;3.95;1.50;;;19.50;50.70;;;;;;4498888;31;20252;-65
2022/05/01 02:59:54;;;;;;;3.83;1.58;;;19.50;50.60;;;;;;4498306;31;20137;-64
2022/05/01 03:02:20;;;;;;;2.10;1.13;;;19.50;50.60;;;;;;4498324;31;20283;-64
2022/05/01 03:04:46;;;;;;;2.03;1.30;;;19.50;50.70;;;;;;4513454;31;20588;-64
2022/05/01 03:07:13;;;;;;;3.45;1.45;;;19.50;50.70;;;;;;4503222;31;20613;-65
2022/05/01 03:09:40;;;;;;;3.15;1.40;;;19.40;50.70;;;;;;4497388;31;20225;-64
2022/05/01 03:12:06;;;;;;;2.28;1.35;;;19.40;50.70;;;;;;4497625;31;20120;-64
2022/05/01 03:14:33;;;;;;;1.30;1.15;;;19.40;50.70;;;;;;4499879;31;20282;-64
2022/05/01 03:16:59;;;;;;;3.55;1.42;;;19.40;50.70;;;;;;4496220;31;20121;-64
2022/05/01 03:22:13;;;;;;;2.05;1.17;;;19.40;51.70;;;;;;4497666;31;20147;-64
2022/05/01 03:24:42;;;;;;;2.17;1.25;;;19.40;50.70;;;;;;4497311;31;20141;-64
2022/05/01 03:27:10;;;;;;;1.95;1.33;;;19.40;50.70;;;;;;4496465;31;20200;-64
2022/05/01 03:29:37;;;;;;;2.95;1.40;;;19.40;50.70;;;;;;4497437;31;20156;-64
2022/05/01 03:32:07;;;;;;;2.75;1.35;;;19.40;50.70;;;;;;4497059;31;20267;-64
2022/05/01 03:34:39;;;;;;;1.85;1.20;;;19.40;50.70;;;;;;4497822;31;20191;-64
2022/05/01 03:37:07;;;;;;;2.28;1.30;;;19.40;50.80;;;;;;4482757;31;20158;-64
2022/05/01 03:39:34;;;;;;;2.05;1.15;;;19.40;50.80;;;;;;4498081;31;20135;-64
2022/05/01 03:42:00;;;;;;;3.47;1.10;;;19.40;50.80;;;;;;4511284;31;20253;-64
2022/05/01 03:44:26;;;;;;;2.75;1.27;;;19.30;50.80;;;;;;4514254;31;20143;-64
2022/05/01 03:46:52;;;;;;;1.55;1.10;;;19.30;50.80;;;;;;4514274;31;20163;-65
2022/05/01 03:49:18;;;;;;;2.42;1.30;;;19.30;51.90;;;;;;4508925;31;20562;-64
2022/05/01 03:51:43;;;;;;;2.47;1.05;;;19.30;50.90;;;;;;4501191;31;20124;-64
2022/05/01 03:54:09;;;;;;;1.48;1.20;;;19.30;50.90;;;;;;4497213;31;20185;-64
2022/05/01 03:56:35;;;;;;;1.98;1.17;;;19.30;50.90;;;;;;4497993;31;20132;-65
2022/05/01 03:59:04;;;;;;;3.22;1.10;;;19.30;50.90;;;;;;4497995;31;20144;-64
2022/05/01 04:01:31;;;;;;;2.40;1.40;;;19.30;50.90;;;;;;4497011;31;20152;-64
2022/05/01 04:03:56;;;;;;;3.28;1.23;;;19.30;51.00;;;;;;4498330;31;20152;-64
2022/05/01 04:06:23;;;;;;;1.67;1.10;;;19.20;50.90;;;;;;4497700;31;20120;-64
2022/05/01 04:08:48;;;;;;;1.90;1.10;;;19.20;51.90;;;;;;4484365;31;20124;-65
2022/05/01 04:11:15;;;;;;;2.08;1.20;;;19.20;50.90;;;;;;4497376;31;20546;-64
2022/05/01 04:13:42;;;;;;;1.77;1.05;;;19.20;51.00;;;;;;4496958;31;20136;-64
2022/05/01 04:16:08;;;;;;;1.33;1.13;;;19.20;51.00;;;;;;4483493;31;20234;-64
2022/05/01 04:18:34;;;;;;;2.72;1.02;;;19.20;51.00;;;;;;4496879;31;20113;-64
2022/05/01 04:21:01;;;;;;;1.80;1.05;;;19.20;51.00;;;;;;4498005;31;20270;-64
2022/05/01 04:23:27;;;;;;;2.03;1.20;;;19.20;51.00;;;;;;4496275;31;20281;-64
2022/05/01 04:25:53;;;;;;;1.38;1.05;;;19.20;51.00;;;;;;4498225;31;20121;-65
2022/05/01 04:28:19;;;;;;;4.15;1.30;;;19.20;51.00;;;;;;4497300;31;20117;-64
2022/05/01 04:30:50;;;;;;;2.38;1.08;;;19.20;51.00;;;;;;4497915;31;20135;-64
2022/05/01 04:33:16;;;;;;;1.42;0.90;;;19.10;51.00;;;;;;4497399;31;20217;-64
2022/05/01 04:35:48;;;;;;;1.83;0.90;;;19.10;51.00;;;;;;4497889;31;20247;-64
2022/05/01 04:38:19;;;;;;;1.75;1.00;;;19.10;51.00;;;;;;4496834;31;20124;-64
2022/05/01 04:40:48;;;;;;;1.63;1.10;;;19.10;51.00;;;;;;4496896;31;20263;-64
2022/05/01 04:43:21;;;;;;;1.92;1.05;;;19.10;51.00;;;;;;4497688;31;20186;-64
2022/05/01 04:45:52;;;;;;;1.30;0.82;;;19.10;51.00;;;;;;4497147;31;20128;-64
2022/05/01 04:48:19;;;;;;;1.52;1.10;;;19.10;51.00;;;;;;4496634;31;20125;-64
2022/05/01 04:50:46;;;;;;;1.50;0.80;;;19.10;51.00;;;;;;4497197;31;20143;-64
2022/05/01 04:53:13;;;;;;;1.45;1.10;;;19.10;51.00;;;;;;4497555;31;20143;-64
2022/05/01 04:55:40;;;;;;;1.50;1.02;;;19.10;51.10;;;;;;4497770;31;20121;-64
2022/05/01 04:58:07;;;;;;;1.52;1.00;;;19.10;51.00;;;;;;4496984;31;20128;-64
2022/05/01 05:00:33;;;;;;;1.42;0.98;;;19.00;51.00;;;;;;4496702;31;20144;-64
2022/05/01 05:03:03;;;;;;;1.60;1.08;;;19.00;51.00;;;;;;4497051;31;20168;-64
2022/05/01 05:05:34;;;;;;;2.03;1.00;;;19.00;51.10;;;;;;4496447;31;20133;-64
2022/05/01 05:10:47;;;;;;;2.00;1.00;;;19.00;51.10;;;;;;4496694;31;20259;-64
2022/05/01 05:13:14;;;;;;;1.67;0.93;;;19.00;51.10;;;;;;4496500;31;20142;-64
2022/05/01 05:15:40;;;;;;;1.05;0.95;;;19.00;51.10;;;;;;4496985;31;20149;-64
2022/05/01 05:18:07;;;;;;;2.42;1.08;;;19.00;51.10;;;;;;4496130;31;20109;-64
2022/05/01 05:20:33;;;;;;;1.35;1.10;;;19.00;51.10;;;;;;4496981;32;20503;-64
2022/05/01 05:22:59;;;;;;;2.00;1.05;;;19.00;51.10;;;;;;4496150;32;20117;-64
2022/05/01 05:25:24;;;;;;;1.55;1.00;;;19.00;51.10;;;;;;4497398;31;20157;-64
2022/05/01 05:27:50;;;;;;;1.40;1.00;;;19.00;51.20;;;;;;4496891;32;20121;-64
2022/05/01 05:30:16;;;;;;;1.55;0.82;;;19.00;51.20;;;;;;4496493;32;20124;-64
2022/05/01 05:32:42;;;;;;;1.30;1.10;;;18.90;51.10;;;;;;4496642;32;20260;-64
2022/05/01 05:35:08;;;;;;;1.30;0.95;;;18.90;51.20;;;;;;4497447;32;20125;-64
2022/05/01 05:37:34;;;;;;;1.88;0.95;;;18.90;51.20;;;;;;4495756;32;20128;-64
2022/05/01 05:40:00;;;;;;;1.73;1.10;;;18.90;51.20;;;;;;4497466;31;20121;-64
2022/05/01 05:42:26;;;;;;;1.67;0.90;;;18.90;51.20;;;;;;4499897;31;20263;-64
2022/05/01 05:44:52;;;;;;;0.93;0.82;;;18.90;51.20;;;;;;4498920;31;20120;-64
2022/05/01 05:47:18;;;;;;;1.10;0.90;;;18.90;51.30;;;;;;4499662;31;20140;-64
2022/05/01 05:49:43;;;;;;;1.77;1.08;;;18.90;51.30;;;;;;4498562;31;20158;-64
2022/05/01 05:52:09;;;;;;;0.85;0.80;;;18.90;51.30;;;;;;4500443;31;20235;-64
2022/05/01 05:54:35;;;;;;;1.08;0.90;;;18.90;51.30;;;;;;4498993;31;20189;-64
2022/05/01 05:57:01;;;;;;;1.50;1.00;;;18.90;51.30;;;;;;4499516;31;20262;-65
2022/05/01 05:59:27;;;;;;;2.38;1.10;;;18.90;51.30;;;;;;4498217;31;20171;-64
2022/05/01 06:01:53;;;;;;;1.27;0.90;;;18.90;51.30;;;;;;4499018;31;20133;-64
2022/05/01 06:04:19;;;;;;;2.00;1.02;;;18.90;51.30;;;;;;4498245;31;20230;-64
2022/05/01 06:06:45;;;;;;;1.00;0.85;;;18.90;51.30;;;;;;4498824;31;20255;-64
2022/05/01 06:09:10;;;;;;;0.80;0.80;;;18.90;51.30;;;;;;4497984;31;20218;-64
2022/05/01 06:11:36;;;;;;;1.30;0.90;;;18.90;51.40;;;;;;4499190;31;20141;-64
2022/05/01 06:14:03;;;;;;;1.92;0.90;;;18.90;51.30;;;;;;4499925;31;20154;-65
2022/05/01 06:16:31;;;;;;;1.23;0.98;;;18.90;51.40;;;;;;4498514;31;20265;-64
2022/05/01 06:18:59;;;;;;;1.17;0.90;;;18.90;51.40;;;;;;4498393;31;20267;-65
2022/05/01 06:21:25;;;;;;;1.83;1.00;;;18.90;51.40;;;;;;4499178;31;20297;-65
2022/05/01 06:23:51;;;;;;;1.75;1.05;;;18.90;51.40;;;;;;4498052;31;20144;-65
2022/05/01 06:26:17;;;;;;;1.17;0.90;;;19.00;51.40;;;;;;4500054;31;20289;-65
2022/05/01 06:28:43;;;;;;;1.23;0.80;;;18.90;51.30;;;;;;4499122;31;20121;-64
2022/05/01 06:31:09;;;;;;;1.40;0.80;;;19.00;51.40;;;;;;4499606;31;20188;-65
2022/05/01 06:33:36;;;;;;;1.33;0.70;;;19.00;51.40;;;;;;4499239;31;20496;-65
2022/05/01 06:36:02;;;;;;;1.70;1.10;;;19.00;51.50;;;;;;4499072;31;20148;-64
2022/05/01 06:38:33;;;;;;;1.30;1.02;;;19.00;51.50;;;;;;4497661;31;20136;-65
2022/05/01 06:41:02;;;;;;;1.38;1.00;;;19.00;51.50;;;;;;4497454;31;20333;-65
2022/05/01 06:43:28;;;;;;;1.73;0.90;;;19.00;51.60;;;;;;4498364;31;20576;-65
2022/05/01 06:45:54;;;;;;;1.10;0.80;;;19.00;51.60;;;;;;4496671;31;20132;-65
2022/05/01 06:48:20;;;;;;;1.58;0.80;;;19.10;51.70;;;;;;4498124;31;20204;-65
2022/05/01 06:50:46;;;;;;;0.75;0.70;;;19.10;51.80;;;;;;4498770;31;20139;-65
2022/05/01 06:53:12;;;;;;;1.08;0.77;;;19.10;51.80;;;;;;4496578;31;20113;-65
2022/05/01 06:55:38;;;;;;;1.63;0.90;;;19.10;51.80;;;;;;4498255;31;20128;-64
2022/05/01 06:58:04;;;;;;;0.85;0.70;;;19.10;51.80;;;;;;4497401;31;20143;-65
2022/05/01 07:00:30;;;;;;;0.85;0.85;;;19.10;51.80;;;;;;4499408;31;20628;-65
2022/05/01 07:02:56;;;;;;;1.60;0.80;;;19.10;51.80;;;;;;4498739;31;20546;-64
2022/05/01 07:05:23;;;;;;;0.82;0.75;;;19.10;51.80;;;;;;4499074;31;20294;-65
2022/05/01 07:07:50;;;;;;;1.25;0.90;;;19.10;51.90;;;;;;4498911;31;20124;-65
2022/05/01 07:10:16;;;;;;;1.38;0.82;;;19.20;51.80;;;;;;4497837;31;20236;-65
2022/05/01 07:12:42;;;;;;;0.80;0.77;;;19.20;51.90;;;;;;4499078;31;20147;-65
2022/05/01 07:15:09;;;;;;;1.02;0.70;;;19.20;51.80;;;;;;4498510;31;20493;-65
2022/05/01 07:17:35;;;;;;;0.95;0.80;;;19.20;51.80;;;;;;4499232;31;20136;-65
2022/05/01 07:20:02;;;;;;;1.10;0.90;;;19.20;51.80;;;;;;4498598;31;20143;-65
2022/05/01 07:22:28;;;;;;;1.67;0.90;;;19.20;51.80;;;;;;4498764;31;20364;-65
2022/05/01 07:24:54;;;;;;;1.00;0.60;;;19.20;51.80;;;;;;4497464;31;20144;-65
2022/05/01 07:27:20;;;;;;;0.82;0.75;;;19.20;51.90;;;;;;4498494;31;20238;-65
2022/05/01 07:29:46;;;;;;;1.33;1.17;;;19.30;51.90;;;;;;4499059;31;20136;-64
2022/05/01 07:32:12;;;;;;;1.27;1.17;;;19.30;51.90;;;;;;4498334;31;20129;-63
2022/05/01 07:34:38;;;;;;;1.45;0.70;;;19.20;51.90;;;;;;4498949;31;20271;-63
2022/05/01 07:37:05;;;;;;;0.77;0.70;;;19.20;52.00;;;;;;4497157;31;20128;-63
2022/05/01 07:39:31;;;;;;;1.05;0.93;;;19.20;51.90;;;;;;4513117;31;20253;-63
2022/05/01 07:41:57;;;;;;;4.15;0.90;;;19.20;51.90;;;;;;4514033;31;20547;-63
2022/05/01 07:44:23;;;;;;;1.20;1.10;;;19.20;51.80;;;;;;4514318;31;20569;-63
2022/05/01 07:46:51;;;;;;;3.08;1.40;;;19.20;51.70;;;;;;4513294;31;20124;-63
2022/05/01 07:49:17;;;;;;;2.45;1.30;;;19.20;51.70;;;;;;4513948;31;20667;-63
2022/05/01 07:51:43;;;;;;;1.75;1.23;;;19.10;51.50;;;;;;4514541;31;20128;-63
2022/05/01 07:54:09;;;;;;;4.15;1.40;;;19.20;51.40;;;;;;4512800;31;20155;-63
2022/05/01 07:56:36;;;;;;;3.50;1.30;;;19.10;51.10;;;;;;4514236;31;20189;-63
2022/05/01 07:59:03;;;;;;;2.78;1.40;;;19.20;51.00;;;;;;4513826;31;20523;-63
2022/05/01 08:01:29;;;;;;;2.40;1.23;;;19.20;51.00;;;;;;4514124;31;20512;-63
2022/05/01 08:06:40;;;;;;;2.42;1.30;;;19.20;50.70;;;;;;4513475;31;20124;-63
2022/05/01 08:09:06;;;;;;;1.60;1.20;;;19.20;50.60;;;;;;4514388;31;20132;-63
2022/05/01 08:11:32;;;;;;;3.83;1.30;;;19.20;50.50;;;;;;4509133;31;20108;-63
2022/05/01 08:13:58;;;;;;;1.98;1.23;;;19.20;50.40;;;;;;4497914;31;20620;-63
2022/05/01 08:16:24;;;;;;;2.42;1.30;;;19.20;50.30;;;;;;4497975;31;20156;-63
2022/05/01 08:21:36;;;;;;;1.88;1.10;;;19.20;50.10;;;;;;4498282;31;20137;-64
2022/05/01 08:24:03;;;;;;;3.25;1.10;;;19.10;50.00;;;;;;4496785;31;20259;-63
2022/05/01 08:26:33;;;;;;;2.00;1.35;;;19.10;49.90;;;;;;4497801;31;20253;-63
2022/05/01 08:28:59;;;;;;;2.22;1.25;;;19.10;49.90;;;;;;4497597;31;20135;-63
2022/05/01 08:31:25;;;;;;;3.85;1.50;;;19.20;49.90;;;;;;4497788;31;20194;-63
2022/05/01 08:33:51;;;;;;;2.22;1.50;;;19.10;49.80;;;;;;4497995;31;20128;-64
2022/05/01 08:36:17;;;;;;;5.40;1.65;;;19.10;49.70;;;;;;4497215;31;20117;-63
2022/05/01 08:38:44;;;;;;;2.38;1.30;;;19.20;49.60;;;;;;4498031;31;20129;-63
2022/05/01 08:41:11;;;;;;;1.58;1.45;;;19.20;49.60;;;;;;4496761;31;20147;-63
2022/05/01 08:43:37;;;;;;;1.83;1.60;;;19.20;49.50;;;;;;4497516;31;20253;-63
2022/05/01 08:46:38;;;;;;;2.75;1.80;;;19.20;49.40;;;;;;4497308;31;20139;-63
2022/05/01 08:49:06;;;;;;;2.90;1.63;;;19.30;49.00;;;;;;4496141;31;20152;-63
2022/05/01 08:51:40;;;;;;;3.10;1.70;;;19.20;48.80;;;;;;4497861;31;20132;-63
2022/05/01 08:54:11;;;;;;;2.63;1.52;;;19.30;48.80;;;;;;4497116;31;20259;-63
2022/05/01 08:56:41;;;;;;;4.28;1.60;;;19.30;48.70;;;;;;4497554;31;20149;-63
2022/05/01 08:59:17;;;;;;;3.30;1.75;;;19.30;48.60;;;;;;4497070;31;20144;-63
2022/05/01 09:01:45;;;;;;;3.92;1.73;;;19.40;48.30;;;;;;4497408;31;20116;-63
2022/05/01 09:04:12;;;;;;;3.45;1.58;;;19.40;48.40;;;;;;4497789;31;20139;-63
2022/05/01 09:06:40;;;;;;;2.92;1.73;;;19.40;48.30;;;;;;4496764;31;20133;-63
2022/05/01 09:09:11;;;;;;;4.90;1.80;;;19.40;48.30;;;;;;4497594;31;20121;-63
2022/05/01 09:14:26;;;;;;;2.53;1.70;;;19.40;48.30;;;;;;4497239;31;20133;-63
2022/05/01 09:17:12;;;;;;;3.25;1.60;;;19.40;48.10;;;;;;4497203;31;20136;-63
2022/05/01 09:19:39;;;;;;;4.00;1.70;;;19.40;47.90;;;;;;4496610;31;20112;-63
2022/05/01 09:22:05;;;;;;;3.65;1.73;;;19.40;48.00;;;;;;4497319;31;20137;-63
2022/05/01 09:24:31;;;;;;;2.42;1.63;;;19.40;48.00;;;;;;4496881;32;20611;-63
2022/05/01 09:26:58;;;;;;;5.38;1.55;;;19.40;47.90;;;;;;4497219;31;20160;-63
2022/05/01 09:29:31;;;;;;;2.67;1.80;;;19.40;47.80;;;;;;4497108;32;20129;-63
2022/05/01 09:32:00;;;;;;;2.45;1.75;;;19.40;48.60;;;;;;4496848;31;20144;-63
2022/05/01 09:34:31;;;;;;;3.08;1.75;;;19.40;47.70;;;;;;4499245;31;20128;-63
2022/05/01 09:36:59;;;;;;;2.88;1.55;;;19.50;47.70;;;;;;4496064;31;20170;-63
2022/05/01 09:39:28;;;;;;;3.40;1.65;;;19.50;47.70;;;;;;4496608;31;20124;-64
2022/05/01 09:41:55;;;;;;;3.63;1.60;;;19.50;47.70;;;;;;4495800;31;20287;-64
2022/05/01 09:44:22;;;;;;;3.05;1.48;;;19.50;47.70;;;;;;4496735;31;20139;-64
2022/05/01 09:46:50;;;;;;;2.45;1.60;;;19.50;47.70;;;;;;4520211;31;20125;-64
2022/05/01 09:49:18;;;;;;;3.45;1.65;;;19.50;47.60;;;;;;4495931;31;20140;-63
2022/05/01 09:51:48;;;;;;;3.40;1.63;;;19.50;47.60;;;;;;4496863;31;20148;-63
2022/05/01 09:54:21;;;;;;;3.35;1.60;;;19.50;47.70;;;;;;4496022;31;20148;-64
2022/05/01 09:56:50;;;;;;;3.50;1.52;;;19.50;47.70;;;;;;4498398;31;20151;-63
2022/05/01 09:59:18;;;;;;;4.22;1.48;;;19.50;47.70;;;;;;4512207;31;20234;-63
2022/05/01 10:01:57;;;;;;;3.90;1.45;;;19.50;47.70;;;;;;4511901;31;20615;-63
2022/05/01 10:04:24;;;;;;;1.85;1.10;;;19.50;47.70;;;;;;4512765;31;20146;-63
2022/05/01 10:06:55;;;;;;;2.63;1.33;;;19.50;47.80;;;;;;4510549;31;20128;-63
2022/05/01 10:09:28;;;;;;;1.77;1.30;;;19.40;47.90;;;;;;4512464;31;20179;-63
2022/05/01 10:11:56;;;;;;;2.75;1.30;;;19.40;47.90;;;;;;4511717;31;20144;-63
2022/05/01 10:14:22;;;;;;;2.58;1.70;;;19.40;47.80;;;;;;4512094;31;20166;-63
2022/05/01 10:16:49;;;;;;;2.53;1.40;;;19.40;47.80;;;;;;4511655;31;20193;-63
2022/05/01 10:19:18;;;;;;;2.17;1.30;;;19.40;47.60;;;;;;4489215;31;26705;-62
2022/05/01 10:21:49;;;;;;;4.00;1.25;;;19.40;47.60;;;;;;4505528;31;20140;-63
2022/05/01 10:24:16;;;;;;;1.42;1.20;;;19.40;47.70;;;;;;4511272;31;20117;-63
2022/05/01 10:26:54;;;;;;;1.40;1.15;;;19.40;47.60;;;;;;4505616;31;20152;-63
2022/05/01 10:32:20;;;;;;;2.05;1.35;;;19.40;47.60;;;;;;4513694;31;20199;-63
2022/05/01 10:32:33;;;;;;;2.03;1.23;;;19.40;47.60;;;;;;4510684;31;20144;-64
2022/05/01 10:35:16;;;;;;;3.20;1.40;;;19.40;47.60;;;;;;4515183;31;20599;-63
2022/05/01 10:37:59;;;;;;;2.05;1.20;;;19.40;47.50;;;;;;4514754;31;20170;-63
2022/05/01 10:40:30;;;;;;;6.03;1.30;;;19.40;47.30;;;;;;4514512;31;20270;-63
2022/05/01 10:42:55;;;;;;;3.42;1.60;;;19.40;47.30;;;;;;4514824;31;20151;-63
2022/05/01 10:45:21;;;;;;;2.50;1.25;;;19.40;47.30;;;;;;4514346;31;20561;-63
2022/05/01 10:47:52;;;;;;;3.83;1.30;;;19.40;47.00;;;;;;4514851;31;20213;-62
2022/05/01 10:50:28;;;;;;;1.17;1.08;;;19.40;46.90;;;;;;4514335;31;20144;-62
2022/05/01 10:53:11;;;;;;;1.92;1.20;;;19.40;46.70;;;;;;4514626;31;20246;-63
2022/05/01 10:56:26;;;;;;;2.45;1.50;;;19.40;46.60;;;;;;4515324;31;20128;-64
2022/05/01 10:59:39;;;;;;;2.60;1.05;;;19.50;46.60;;;;;;4506498;31;20135;-63
2022/05/01 11:02:22;;;;;;;2.47;1.35;;;19.50;46.50;;;;;;4513899;31;20190;-63
2022/05/01 11:04:49;;;;;;;1.88;1.10;;;19.50;46.50;;;;;;4514736;31;20569;-63
2022/05/01 11:07:17;;;;;;;3.17;1.38;;;19.50;46.70;;;;;;4514601;31;20254;-64
2022/05/01 11:09:47;;;;;;;2.15;1.10;;;19.50;46.60;;;;;;4514729;31;20136;-64
2022/05/01 11:12:15;;;;;;;2.03;1.10;;;19.40;46.70;;;;;;4514193;31;20144;-64
2022/05/01 11:14:59;;;;;;;1.27;0.82;;;19.40;46.70;;;;;;4513950;31;20147;-64
2022/05/01 11:17:42;;;;;;;2.33;1.35;;;19.40;46.60;;;;;;4514749;31;20132;-64
2022/05/01 11:20:24;;;;;;;1.17;1.00;;;19.40;46.80;;;;;;4513996;31;20679;-63
2022/05/01 11:22:51;;;;;;;1.40;1.10;;;19.40;46.80;;;;;;4514188;31;20139;-63
2022/05/01 11:25:30;;;;;;;3.38;1.17;;;19.40;46.70;;;;;;4514370;31;20132;-64
2022/05/01 11:27:56;;;;;;;2.08;1.10;;;19.40;46.70;;;;;;4513754;31;20263;-63
2022/05/01 11:30:29;;;;;;;1.08;0.98;;;19.40;46.70;;;;;;4513442;31;20492;-64
2022/05/01 11:33:10;;;;;;;2.90;1.40;;;19.40;46.60;;;;;;4511487;31;20143;-64
2022/05/01 11:35:57;;;;;;;2.88;1.30;;;19.40;46.70;;;;;;4514071;31;20213;-64
2022/05/01 11:38:43;;;;;;;1.65;1.10;;;19.40;46.90;;;;;;4513779;31;20220;-64
2022/05/01 11:41:10;;;;;;;2.92;1.00;;;19.40;46.90;;;;;;4507276;31;20147;-63
2022/05/01 11:43:36;;;;;;;2.50;1.20;;;19.40;47.00;;;;;;4513804;31;20566;-64
2022/05/01 11:46:04;;;;;;;2.30;1.33;;;19.40;46.90;;;;;;4513535;31;20615;-63
2022/05/01 11:48:31;;;;;;;3.28;1.50;;;19.40;46.70;;;;;;4513876;31;20176;-64
2022/05/01 11:51:00;;;;;;;4.97;1.10;;;19.50;46.70;;;;;;4513956;31;20627;-63
2022/05/01 11:53:32;;;;;;;2.03;1.30;;;19.50;46.50;;;;;;4513391;31;20132;-63
2022/05/01 12:04:35;;;;;;;2.28;1.10;;;19.50;46.10;;;;;;4514480;31;20139;-63
2022/05/01 12:07:12;;;;;;;2.20;1.30;;;19.50;46.10;;;;;;4513774;31;20147;-63
2022/05/01 12:09:39;;;;;;;1.80;1.08;;;19.50;46.10;;;;;;4509065;31;20133;-63
2022/05/01 12:12:11;;;;;;;4.28;1.45;;;19.50;46.10;;;;;;4497144;31;20677;-63
2022/05/01 12:14:38;;;;;;;1.88;1.02;;;19.50;46.40;;;;;;4497058;31;20141;-63
2022/05/01 12:17:08;;;;;;;2.60;1.20;;;19.60;46.40;;;;;;4498021;31;20120;-63
2022/05/01 12:19:35;;;;;;;1.45;1.17;;;19.60;46.30;;;;;;4496912;31;20108;-64
2022/05/01 12:22:02;;;;;;;3.35;1.27;;;19.60;46.30;;;;;;4511388;31;20136;-64
2022/05/01 12:24:28;;;;;;;3.08;1.08;;;19.60;46.20;;;;;;4513460;31;20128;-64
2022/05/01 12:26:54;;;;;;;2.47;1.10;;;19.60;46.10;;;;;;4513723;31;20155;-63
2022/05/01 12:29:21;;;;;;;3.05;1.10;;;19.70;46.10;;;;;;4513792;31;20193;-63
2022/05/01 12:32:00;;;;;;;3.50;1.20;;;19.70;46.00;;;;;;4512283;31;20148;-62
2022/05/01 12:34:28;;;;;;;2.90;1.20;;;19.70;45.90;;;;;;4512839;31;20132;-64
2022/05/01 12:37:00;;;;;;;1.13;1.00;;;19.80;46.00;;;;;;4512428;31;20596;-64
2022/05/01 12:39:27;;;;;;;2.80;1.40;;;19.80;46.00;;;;;;4512961;31;20132;-64
2022/05/01 12:45:08;;;;;;;2.33;1.02;;;19.80;46.00;;;;;;4513125;31;20282;-64
2022/05/01 12:47:40;;;;;;;4.40;1.40;;;19.80;46.00;;;;;;4514123;31;20124;-65
2022/05/01 12:50:08;;;;;;;2.45;1.02;;;19.80;46.00;;;;;;4513237;31;20124;-64
2022/05/01 12:52:40;;;;;;;3.80;1.38;;;19.80;46.00;;;;;;4513470;31;20139;-63
2022/05/01 12:55:08;;;;;;;1.52;1.15;;;19.80;46.10;;;;;;4513050;31;20131;-62
2022/05/01 12:57:40;;;;;;;2.05;1.10;;;19.80;46.40;;;;;;4511964;31;20216;-63
2022/05/01 13:00:07;;;;;;;1.60;1.02;;;19.80;46.60;;;;;;4512743;31;20140;-64
2022/05/01 13:02:33;;;;;;;7.32;1.23;;;19.80;46.80;;;;;;4512707;31;20224;-63
2022/05/01 13:05:03;;;;;;;1.80;1.13;;;19.80;47.00;;;;;;4513421;31;20124;-63
2022/05/01 13:07:36;;;;;;;4.60;1.60;;;19.80;47.20;;;;;;4511788;31;20143;-64
2022/05/01 13:10:05;;;;;;;1.42;1.00;;;19.70;47.20;;;;;;4513044;31;20140;-63
2022/05/01 13:12:34;;;;;;;3.60;1.17;;;19.70;47.40;;;;;;4513345;31;20132;-63
2022/05/01 13:15:04;;;;;;;1.13;1.02;;;19.70;47.40;;;;;;4512653;31;20180;-63
2022/05/01 13:17:31;;;;;;;1.90;1.20;;;19.70;47.50;;;;;;4512413;31;20132;-63
2022/05/01 13:19:58;;;;;;;5.38;1.48;;;19.70;47.60;;;;;;4512843;31;20142;-63
2022/05/01 13:22:25;;;;;;;1.33;0.98;;;19.70;47.70;;;;;;4512181;31;20140;-64
2022/05/01 13:24:52;;;;;;;1.48;1.10;;;19.70;47.80;;;;;;4513029;31;20162;-63
2022/05/01 13:27:19;;;;;;;1.77;1.10;;;19.70;47.90;;;;;;4512947;31;20124;-64
2022/05/01 13:29:46;;;;;;;1.23;1.00;;;19.70;47.90;;;;;;4513626;31;20257;-63